createdAt,value
2022-12-06T00:01:16.777Z,0.30
2022-12-06T00:03:45.038Z,0.30
2022-12-06T00:06:13.523Z,0.30
2022-12-06T00:08:40.621Z,0.30
2022-12-06T00:11:11.509Z,0.30
2022-12-06T00:13:39.161Z,0.20
2022-12-06T00:16:07.612Z,0.30
2022-12-06T00:18:35.659Z,0.30
2022-12-06T00:21:22.423Z,0.40
2022-12-06T00:23:50.766Z,0.30
2022-12-06T00:26:18.417Z,0.30
2022-12-06T00:28:45.684Z,0.30
2022-12-06T00:31:14.887Z,0.30
2022-12-06T00:33:42.057Z,0.30
2022-12-06T00:36:13.798Z,0.30
2022-12-06T00:38:40.745Z,0.30
2022-12-06T00:41:11.248Z,0.30
2022-12-06T00:43:38.219Z,0.30
2022-12-06T00:46:06.899Z,0.40
2022-12-06T00:48:34.260Z,0.40
2022-12-06T00:51:01.225Z,0.30
2022-12-06T00:53:28.473Z,0.30
2022-12-06T00:55:55.805Z,0.40
2022-12-06T00:58:23.225Z,0.40
2022-12-06T01:00:51.001Z,0.40
2022-12-06T01:03:18.018Z,0.40
2022-12-06T01:05:46.501Z,0.30
2022-12-06T01:08:13.716Z,0.30
2022-12-06T01:10:40.964Z,0.30
2022-12-06T01:13:08.429Z,0.30
2022-12-06T01:15:38.698Z,0.40
2022-12-06T01:18:05.653Z,0.30
2022-12-06T01:20:32.599Z,0.40
2022-12-06T01:22:59.541Z,0.30
2022-12-06T01:25:27.988Z,0.30
2022-12-06T01:27:56.550Z,0.40
2022-12-06T01:30:23.448Z,0.40
2022-12-06T01:32:50.407Z,0.40
2022-12-06T01:35:17.544Z,0.40
2022-12-06T01:37:44.497Z,0.40
2022-12-06T01:40:12.158Z,0.40
2022-12-06T01:42:39.101Z,0.50
2022-12-06T01:45:06.371Z,0.40
2022-12-06T01:47:38.870Z,0.40
2022-12-06T01:50:24.565Z,0.40
2022-12-06T01:53:02.629Z,0.40
2022-12-06T01:55:31.352Z,0.50
2022-12-06T01:58:00.032Z,0.40
2022-12-06T02:00:27.091Z,0.40
2022-12-06T02:02:54.243Z,0.40
2022-12-06T02:05:21.236Z,0.40
2022-12-06T02:07:48.467Z,0.40
2022-12-06T02:10:15.540Z,0.50
2022-12-06T02:12:42.449Z,0.40
2022-12-06T02:15:09.722Z,0.40
2022-12-06T02:17:42.954Z,0.50
2022-12-06T02:20:19.316Z,0.50
2022-12-06T02:23:00.993Z,0.50
2022-12-06T02:25:34.362Z,0.50
2022-12-06T02:28:20.389Z,0.50
2022-12-06T02:31:06.206Z,0.50
2022-12-06T02:33:53.455Z,0.60
2022-12-06T02:36:27.705Z,0.60
2022-12-06T02:38:57.389Z,0.60
2022-12-06T02:41:27.287Z,0.60
2022-12-06T02:43:56.931Z,0.60
2022-12-06T02:46:25.181Z,0.60
2022-12-06T02:48:53.506Z,0.60
2022-12-06T02:51:21.273Z,0.60
2022-12-06T02:53:50.920Z,0.70
2022-12-06T02:56:18.710Z,0.70
2022-12-06T02:58:45.906Z,0.70
2022-12-06T03:01:15.393Z,0.70
2022-12-06T03:03:48.920Z,0.70
2022-12-06T03:06:15.837Z,0.70
2022-12-06T03:08:54.906Z,0.70
2022-12-06T03:11:21.835Z,0.80
2022-12-06T03:13:48.747Z,0.70
2022-12-06T03:16:29.428Z,0.80
2022-12-06T03:19:05.298Z,0.80
2022-12-06T03:21:35.145Z,0.80
2022-12-06T03:24:02.317Z,0.80
2022-12-06T03:26:31.201Z,0.80
2022-12-06T03:29:00.235Z,0.80
2022-12-06T03:31:28.751Z,0.80
2022-12-06T03:34:00.583Z,0.80
2022-12-06T03:36:27.848Z,0.90
2022-12-06T03:38:59.038Z,0.90
2022-12-06T03:41:28.754Z,0.90
2022-12-06T03:43:55.860Z,0.90
2022-12-06T03:46:31.668Z,0.90
2022-12-06T03:49:04.476Z,0.90
2022-12-06T03:51:33.625Z,0.90
2022-12-06T03:54:02.305Z,0.90
2022-12-06T03:56:29.419Z,0.90
2022-12-06T03:58:56.364Z,0.90
2022-12-06T04:01:23.674Z,0.90
2022-12-06T04:03:50.756Z,1.00
2022-12-06T04:06:17.766Z,1.00
2022-12-06T04:08:44.677Z,1.00
2022-12-06T04:11:11.589Z,1.00
2022-12-06T04:13:38.692Z,1.00
2022-12-06T04:16:25.788Z,1.00
2022-12-06T04:18:52.688Z,1.00
2022-12-06T04:21:31.484Z,1.00
2022-12-06T04:23:58.352Z,1.00
2022-12-06T04:26:25.902Z,1.00
2022-12-06T04:29:11.946Z,1.00
2022-12-06T04:31:58.432Z,1.00
2022-12-06T04:34:44.094Z,1.00
2022-12-06T04:37:29.623Z,1.00
2022-12-06T04:39:56.852Z,1.00
2022-12-06T04:42:42.138Z,1.00
2022-12-06T04:45:09.368Z,1.10
2022-12-06T04:47:36.292Z,1.10
2022-12-06T04:50:03.373Z,1.00
2022-12-06T04:52:35.406Z,1.10
2022-12-06T04:55:03.847Z,1.10
2022-12-06T04:57:30.783Z,1.10
2022-12-06T04:59:58.062Z,1.10
2022-12-06T05:02:25.183Z,1.00
2022-12-06T05:04:52.098Z,1.10
2022-12-06T05:07:19.009Z,1.10
2022-12-06T05:09:45.899Z,1.10
2022-12-06T05:12:12.842Z,1.10
2022-12-06T05:14:39.830Z,1.10
2022-12-06T05:17:06.833Z,1.10
2022-12-06T05:19:33.894Z,1.10
2022-12-06T05:22:00.883Z,1.10
2022-12-06T05:24:27.793Z,1.10
2022-12-06T05:26:54.746Z,1.10
2022-12-06T05:29:24.444Z,1.20
2022-12-06T05:31:51.472Z,1.10
2022-12-06T05:34:18.484Z,1.20
2022-12-06T05:36:46.190Z,1.20
2022-12-06T05:39:13.366Z,1.10
2022-12-06T05:41:40.380Z,1.20
2022-12-06T05:44:07.420Z,1.20
2022-12-06T05:46:34.364Z,1.20
2022-12-06T05:49:01.371Z,1.20
2022-12-06T05:51:28.302Z,1.20
2022-12-06T05:53:55.271Z,1.20
2022-12-06T05:56:22.176Z,1.20
2022-12-06T05:58:49.078Z,1.20
2022-12-06T06:01:15.987Z,1.20
2022-12-06T06:03:47.435Z,1.20
2022-12-06T06:06:15.579Z,1.30
2022-12-06T06:08:42.709Z,1.20
2022-12-06T06:11:09.630Z,1.30
2022-12-06T06:13:36.496Z,1.30
2022-12-06T06:16:03.575Z,1.30
2022-12-06T06:18:30.434Z,1.30
2022-12-06T06:21:00.048Z,1.30
2022-12-06T06:23:28.205Z,1.30
2022-12-06T06:25:55.085Z,1.40
2022-12-06T06:28:22.424Z,1.30
2022-12-06T06:30:49.531Z,1.30
2022-12-06T06:33:16.480Z,1.30
2022-12-06T06:35:43.627Z,1.40
2022-12-06T06:38:10.574Z,1.40
2022-12-06T06:40:37.515Z,1.40
2022-12-06T06:43:20.461Z,1.40
2022-12-06T06:45:53.894Z,1.40
2022-12-06T06:48:21.345Z,1.40
2022-12-06T06:50:49.555Z,1.40
2022-12-06T06:53:20.607Z,1.40
2022-12-06T06:55:47.852Z,1.40
2022-12-06T06:58:15.381Z,1.40
2022-12-06T07:00:42.728Z,1.40
2022-12-06T07:03:14.947Z,1.40
2022-12-06T07:05:43.662Z,1.40
2022-12-06T07:08:10.910Z,1.40
2022-12-06T07:10:37.875Z,1.40
2022-12-06T07:13:04.933Z,1.50
2022-12-06T07:15:31.890Z,1.50
2022-12-06T07:17:58.767Z,1.50
2022-12-06T07:20:25.677Z,1.50
2022-12-06T07:22:52.671Z,1.50
2022-12-06T07:25:19.582Z,1.50
2022-12-06T07:27:46.508Z,1.50
2022-12-06T07:30:17.044Z,1.50
2022-12-06T07:32:45.167Z,1.50
2022-12-06T07:35:12.033Z,1.60
2022-12-06T07:37:41.868Z,1.60
2022-12-06T07:40:09.049Z,1.60
2022-12-06T07:42:54.442Z,1.60
2022-12-06T07:45:21.390Z,1.70
2022-12-06T07:47:48.339Z,1.60
2022-12-06T07:50:18.376Z,1.60
2022-12-06T07:52:46.532Z,1.70
2022-12-06T07:55:13.615Z,1.70
2022-12-06T07:57:43.797Z,1.70
2022-12-06T08:00:12.507Z,1.70
2022-12-06T08:02:42.758Z,1.70
2022-12-06T08:05:09.937Z,1.70
2022-12-06T08:07:36.986Z,1.70
2022-12-06T08:10:04.972Z,1.70
2022-12-06T08:12:32.589Z,1.70
2022-12-06T08:15:00.107Z,1.80
2022-12-06T08:17:27.769Z,1.80
2022-12-06T08:19:54.802Z,1.80
2022-12-06T08:22:21.962Z,1.80
2022-12-06T08:24:49.060Z,1.80
2022-12-06T08:27:16.172Z,1.90
2022-12-06T08:29:45.923Z,1.90
2022-12-06T08:32:12.917Z,1.90
2022-12-06T08:34:40.097Z,1.90
2022-12-06T08:37:07.024Z,1.90
2022-12-06T08:39:34.015Z,1.90
2022-12-06T08:42:03.787Z,2.00
2022-12-06T08:44:31.961Z,2.00
2022-12-06T08:47:01.090Z,2.00
2022-12-06T08:49:28.938Z,2.00
2022-12-06T08:51:56.161Z,2.00
2022-12-06T08:54:24.489Z,2.00
2022-12-06T08:56:51.707Z,2.00
2022-12-06T08:59:19.523Z,2.00
2022-12-06T09:01:47.050Z,2.00
2022-12-06T09:04:14.241Z,2.10
2022-12-06T09:06:42.501Z,2.10
2022-12-06T09:09:10.432Z,2.10
2022-12-06T09:11:37.662Z,2.10
2022-12-06T09:14:05.267Z,2.10
2022-12-06T09:16:32.482Z,2.20
2022-12-06T09:18:59.492Z,2.20
2022-12-06T09:21:29.059Z,2.20
2022-12-06T09:23:57.076Z,2.20
2022-12-06T09:26:24.411Z,2.20
2022-12-06T09:28:51.830Z,2.20
2022-12-06T09:31:19.086Z,2.30
2022-12-06T09:33:46.983Z,2.30
2022-12-06T09:36:16.060Z,2.30
2022-12-06T09:38:44.427Z,2.30
2022-12-06T09:41:29.894Z,2.30
2022-12-06T09:43:59.846Z,2.30
2022-12-06T09:46:45.005Z,2.40
2022-12-06T09:49:11.987Z,2.40
2022-12-06T09:51:57.858Z,2.40
2022-12-06T09:54:34.247Z,2.40
2022-12-06T09:57:04.638Z,2.40
2022-12-06T09:59:31.605Z,2.40
2022-12-06T10:02:11.191Z,2.50
2022-12-06T10:04:56.991Z,2.50
2022-12-06T10:07:24.359Z,2.50
2022-12-06T10:09:51.497Z,2.50
2022-12-06T10:12:33.863Z,2.50
2022-12-06T10:15:03.741Z,2.60
2022-12-06T10:17:36.584Z,2.60
2022-12-06T10:20:12.212Z,2.60
2022-12-06T10:22:58.750Z,2.60
2022-12-06T10:25:31.942Z,2.70
2022-12-06T10:28:17.558Z,2.70
2022-12-06T10:30:50.477Z,2.70
2022-12-06T10:33:24.586Z,2.70
2022-12-06T10:35:59.064Z,2.80
2022-12-06T10:38:30.604Z,2.80
2022-12-06T10:41:03.359Z,2.80
2022-12-06T10:43:36.279Z,2.90
2022-12-06T10:46:26.063Z,2.90
2022-12-06T10:48:57.557Z,3.00
2022-12-06T10:51:30.194Z,3.00
2022-12-06T10:53:58.913Z,3.00
2022-12-06T10:56:39.961Z,3.00
2022-12-06T10:59:21.489Z,3.00
2022-12-06T11:01:49.679Z,3.00
2022-12-06T11:04:24.795Z,3.00
2022-12-06T11:07:18.220Z,3.00
2022-12-06T11:09:46.824Z,3.00
2022-12-06T11:12:31.431Z,3.00
2022-12-06T11:15:19.027Z,3.00
2022-12-06T11:17:48.743Z,3.10
2022-12-06T11:20:23.138Z,3.10
2022-12-06T11:22:53.777Z,3.10
2022-12-06T11:25:27.855Z,3.10
2022-12-06T11:28:04.331Z,3.10
2022-12-06T11:30:34.532Z,3.10
2022-12-06T11:33:02.164Z,3.10
2022-12-06T11:35:29.417Z,3.20
2022-12-06T11:38:01.450Z,3.20
2022-12-06T11:40:37.062Z,3.10
2022-12-06T11:43:06.121Z,3.10
2022-12-06T11:45:33.928Z,3.10
2022-12-06T11:48:02.856Z,3.20
2022-12-06T11:50:30.665Z,3.20
2022-12-06T11:53:04.324Z,3.30
2022-12-06T11:55:42.456Z,3.30
2022-12-06T11:58:16.385Z,3.30
2022-12-06T12:01:00.020Z,3.30
2022-12-06T12:03:32.439Z,3.30
2022-12-06T12:06:10.194Z,3.30
2022-12-06T12:08:37.467Z,3.40
2022-12-06T12:11:04.829Z,3.30
2022-12-06T12:13:44.655Z,3.40
2022-12-06T12:16:14.635Z,3.40
2022-12-06T12:18:52.649Z,3.40
2022-12-06T12:21:30.156Z,3.40
2022-12-06T12:23:58.467Z,3.50
2022-12-06T12:26:34.134Z,3.60
2022-12-06T12:29:05.661Z,3.70
2022-12-06T12:31:32.749Z,3.60
2022-12-06T12:34:14.865Z,3.60
2022-12-06T12:36:47.003Z,3.60
2022-12-06T12:39:26.499Z,3.50
2022-12-06T12:41:53.698Z,3.40
2022-12-06T12:44:37.516Z,3.50
2022-12-06T12:47:21.721Z,3.50
2022-12-06T12:50:07.077Z,3.50
2022-12-06T12:52:38.478Z,3.50
2022-12-06T12:55:14.588Z,3.40
2022-12-06T12:57:42.997Z,3.50
2022-12-06T13:00:16.810Z,3.50
2022-12-06T13:02:45.007Z,3.60
2022-12-06T13:05:32.737Z,3.60
2022-12-06T13:08:05.789Z,3.60
2022-12-06T13:10:37.339Z,3.60
2022-12-06T13:13:06.729Z,3.60
2022-12-06T13:15:35.634Z,3.70
2022-12-06T13:18:07.361Z,3.70
2022-12-06T13:20:34.842Z,3.70
2022-12-06T13:23:05.082Z,3.60
2022-12-06T13:25:32.109Z,3.60
2022-12-06T13:28:05.137Z,3.60
2022-12-06T13:30:34.038Z,3.60
2022-12-06T13:33:05.035Z,3.60
2022-12-06T13:35:34.446Z,3.60
2022-12-06T13:38:03.589Z,3.60
2022-12-06T13:40:33.616Z,3.60
2022-12-06T13:43:01.279Z,3.60
2022-12-06T13:45:40.317Z,3.60
2022-12-06T13:48:25.556Z,3.60
2022-12-06T13:51:02.476Z,3.60
2022-12-06T13:53:34.040Z,3.60
2022-12-06T13:56:03.221Z,3.60
2022-12-06T13:58:30.314Z,3.60
2022-12-06T14:00:57.760Z,3.60
2022-12-06T14:03:28.150Z,3.70
2022-12-06T14:06:12.036Z,3.70
2022-12-06T14:08:42.840Z,3.70
2022-12-06T14:11:12.919Z,3.70
2022-12-06T14:13:40.909Z,3.70
2022-12-06T14:16:09.000Z,3.70
2022-12-06T14:18:36.296Z,3.70
2022-12-06T14:21:03.486Z,3.70
2022-12-06T14:23:31.910Z,3.70
2022-12-06T14:26:31.403Z,3.70
2022-12-06T14:28:59.608Z,3.80
2022-12-06T14:31:28.928Z,3.80
2022-12-06T14:33:56.962Z,3.70
2022-12-06T14:36:28.500Z,3.70
2022-12-06T14:39:09.483Z,3.70
2022-12-06T14:42:21.119Z,3.70
2022-12-06T14:45:01.786Z,3.70
2022-12-06T14:47:30.278Z,3.60
2022-12-06T14:50:16.652Z,3.60
2022-12-06T14:53:01.155Z,3.60
2022-12-06T14:55:30.030Z,3.60
2022-12-06T14:57:58.681Z,3.60
2022-12-06T15:00:28.155Z,3.50
2022-12-06T15:03:21.956Z,3.50
2022-12-06T15:05:50.471Z,3.50
2022-12-06T15:08:34.308Z,3.50
2022-12-06T15:11:01.479Z,3.50
2022-12-06T15:13:29.288Z,3.50
2022-12-06T15:16:13.284Z,3.50
2022-12-06T15:19:06.585Z,3.50
2022-12-06T15:21:35.315Z,3.50
2022-12-06T15:24:02.452Z,3.50
2022-12-06T15:26:29.529Z,3.40
2022-12-06T15:28:56.751Z,3.50
2022-12-06T15:31:27.575Z,3.40
2022-12-06T15:33:55.359Z,3.50
2022-12-06T15:36:24.003Z,3.50
2022-12-06T15:38:51.662Z,3.40
2022-12-06T15:41:19.823Z,3.40
2022-12-06T15:43:47.426Z,3.40
2022-12-06T15:46:21.924Z,3.30
2022-12-06T15:48:49.200Z,3.30
2022-12-06T15:51:20.571Z,3.30
2022-12-06T15:53:48.964Z,3.20
2022-12-06T15:56:17.508Z,3.20
2022-12-06T15:58:45.067Z,3.20
2022-12-06T16:01:15.059Z,3.20
2022-12-06T16:03:42.273Z,3.10
2022-12-06T16:06:12.083Z,3.10
2022-12-06T16:08:39.340Z,3.10
2022-12-06T16:11:13.809Z,3.10
2022-12-06T16:13:41.063Z,3.10
2022-12-06T16:16:08.947Z,3.10
2022-12-06T16:18:36.355Z,3.10
2022-12-06T16:21:03.606Z,3.10
2022-12-06T16:24:12.448Z,3.10
2022-12-06T16:26:38.856Z,3.10
2022-12-06T16:29:07.279Z,3.10
2022-12-06T16:31:38.601Z,3.10
2022-12-06T16:34:06.897Z,3.10
2022-12-06T16:36:34.385Z,3.10
2022-12-06T16:39:04.156Z,3.10
2022-12-06T16:41:35.260Z,3.10
2022-12-06T16:44:02.663Z,3.10
2022-12-06T16:46:29.679Z,3.10
2022-12-06T16:49:44.650Z,3.10
2022-12-06T16:52:04.881Z,3.10
2022-12-06T16:54:32.001Z,3.10
2022-12-06T16:56:58.974Z,3.20
2022-12-06T16:59:26.112Z,3.20
2022-12-06T17:01:54.349Z,3.10
2022-12-06T17:04:21.886Z,3.20
2022-12-06T17:06:49.075Z,3.10
2022-12-06T17:09:16.275Z,3.10
2022-12-06T17:12:01.729Z,3.20
2022-12-06T17:14:29.183Z,3.10
2022-12-06T17:16:57.182Z,3.10
2022-12-06T17:19:26.946Z,3.10
2022-12-06T17:21:54.414Z,3.10
2022-12-06T17:24:21.584Z,3.10
2022-12-06T17:26:48.734Z,3.10
2022-12-06T17:29:15.718Z,3.10
2022-12-06T17:31:42.991Z,3.10
2022-12-06T17:34:11.505Z,3.10
2022-12-06T17:36:40.733Z,3.10
2022-12-06T17:39:08.553Z,3.10
2022-12-06T17:41:53.906Z,3.10
2022-12-06T17:44:20.947Z,3.10
2022-12-06T17:46:47.875Z,3.10
2022-12-06T17:49:18.526Z,3.10
2022-12-06T17:51:45.524Z,3.10
2022-12-06T17:54:12.760Z,3.00
2022-12-06T17:57:00.014Z,3.10
2022-12-06T17:59:28.861Z,3.00
2022-12-06T18:02:15.084Z,3.00
2022-12-06T18:04:44.620Z,3.00
2022-12-06T18:07:12.469Z,3.00
2022-12-06T18:09:39.548Z,3.00
2022-12-06T18:12:08.008Z,2.90
2022-12-06T18:14:35.006Z,2.90
2022-12-06T18:17:02.963Z,2.90
2022-12-06T18:19:29.919Z,2.80
2022-12-06T18:21:56.908Z,2.80
2022-12-06T18:24:27.954Z,2.80
2022-12-06T18:26:58.753Z,2.80
2022-12-06T18:29:25.693Z,2.80
2022-12-06T18:31:52.939Z,2.80
2022-12-06T18:34:20.384Z,2.80
2022-12-06T18:36:47.453Z,2.80
2022-12-06T18:39:16.344Z,2.80
2022-12-06T18:41:44.212Z,2.80
2022-12-06T18:44:11.730Z,2.90
2022-12-06T18:46:39.393Z,2.90
2022-12-06T18:49:07.080Z,2.90
2022-12-06T18:51:35.055Z,2.90
2022-12-06T18:54:04.682Z,2.90
2022-12-06T18:56:32.446Z,2.90
2022-12-06T18:59:02.560Z,2.90
2022-12-06T19:01:31.005Z,2.90
2022-12-06T19:04:00.661Z,2.90
2022-12-06T19:06:28.942Z,2.90
2022-12-06T19:08:58.021Z,2.90
2022-12-06T19:11:25.012Z,2.90
2022-12-06T19:13:56.245Z,2.90
2022-12-06T19:16:27.060Z,2.90
2022-12-06T19:18:55.421Z,2.90
2022-12-06T19:21:22.418Z,2.90
2022-12-06T19:23:54.415Z,2.90
2022-12-06T19:26:21.536Z,2.90
2022-12-06T19:28:48.812Z,2.90
2022-12-06T19:31:16.128Z,2.90
2022-12-06T19:33:47.644Z,2.90
2022-12-06T19:36:20.028Z,2.90
2022-12-06T19:38:47.385Z,2.90
2022-12-06T19:41:16.181Z,2.90
2022-12-06T19:44:01.561Z,2.90
2022-12-06T19:46:31.197Z,2.90
2022-12-06T19:49:01.883Z,2.90
2022-12-06T19:51:29.581Z,2.90
2022-12-06T19:53:58.115Z,2.90
2022-12-06T19:56:25.964Z,2.90
2022-12-06T19:58:54.311Z,2.90
2022-12-06T20:01:22.356Z,2.90
2022-12-06T20:03:49.334Z,2.90
2022-12-06T20:06:18.386Z,2.90
2022-12-06T20:08:45.983Z,2.90
2022-12-06T20:11:32.505Z,2.90
2022-12-06T20:14:00.116Z,2.90
2022-12-06T20:16:27.760Z,2.90
2022-12-06T20:18:57.183Z,2.90
2022-12-06T20:21:24.388Z,2.90
2022-12-06T20:23:51.758Z,2.90
2022-12-06T20:26:19.309Z,2.90
2022-12-06T20:28:51.499Z,2.90
2022-12-06T20:31:25.714Z,2.90
2022-12-06T20:33:56.567Z,2.90
2022-12-06T20:36:23.832Z,2.90
2022-12-06T20:38:54.353Z,2.90
2022-12-06T20:41:22.567Z,2.90
2022-12-06T20:43:51.215Z,2.90
2022-12-06T20:46:25.556Z,2.90
2022-12-06T20:48:53.203Z,2.90
2022-12-06T20:51:30.220Z,2.90
2022-12-06T20:53:58.610Z,2.90
2022-12-06T20:56:29.861Z,2.90
2022-12-06T20:58:58.091Z,2.90
2022-12-06T21:01:29.130Z,2.90
2022-12-06T21:03:56.724Z,2.90
2022-12-06T21:06:25.434Z,2.80
2022-12-06T21:08:52.893Z,2.90
2022-12-06T21:11:23.369Z,2.90
2022-12-06T21:13:54.509Z,2.90
2022-12-06T21:16:23.274Z,2.90
2022-12-06T21:18:54.155Z,2.90
2022-12-06T21:21:25.558Z,2.90
2022-12-06T21:23:52.523Z,2.90
2022-12-06T21:26:19.513Z,2.90
2022-12-06T21:28:46.529Z,2.90
2022-12-06T21:31:13.895Z,2.90
2022-12-06T21:33:41.094Z,2.90
2022-12-06T21:36:08.205Z,2.90
2022-12-06T21:38:35.524Z,2.90
2022-12-06T21:41:06.301Z,2.90
2022-12-06T21:43:33.930Z,2.90
2022-12-06T21:46:27.204Z,2.90
2022-12-06T21:48:58.277Z,2.90
2022-12-06T21:51:26.158Z,2.90
2022-12-06T21:53:53.327Z,2.90
2022-12-06T21:56:21.444Z,2.90
2022-12-06T21:58:48.617Z,2.90
2022-12-06T22:01:17.393Z,2.90
2022-12-06T22:03:47.243Z,2.90
2022-12-06T22:06:14.374Z,2.90
2022-12-06T22:08:42.335Z,2.90
2022-12-06T22:11:16.533Z,2.90
2022-12-06T22:13:43.899Z,2.90
2022-12-06T22:16:11.819Z,2.90
2022-12-06T22:18:45.019Z,2.90
2022-12-06T22:21:33.225Z,2.90
2022-12-06T22:24:00.383Z,2.90
2022-12-06T22:26:31.235Z,2.90
2022-12-06T22:28:58.657Z,2.90
2022-12-06T22:31:29.801Z,2.90
2022-12-06T22:33:57.721Z,2.90
2022-12-06T22:36:24.921Z,2.90
2022-12-06T22:38:52.601Z,2.90
2022-12-06T22:41:20.088Z,2.90
2022-12-06T22:43:50.265Z,3.00
2022-12-06T22:46:17.430Z,2.90
2022-12-06T22:48:44.458Z,2.90
2022-12-06T22:51:11.418Z,2.90
2022-12-06T22:53:38.834Z,2.90
2022-12-06T22:56:05.838Z,3.00
2022-12-06T22:58:32.783Z,3.00
2022-12-06T23:00:59.888Z,2.90
2022-12-06T23:03:28.815Z,2.90
2022-12-06T23:05:59.094Z,2.90
2022-12-06T23:08:26.469Z,2.90
2022-12-06T23:11:03.714Z,2.90
2022-12-06T23:13:30.679Z,2.90
2022-12-06T23:15:58.930Z,3.00
2022-12-06T23:18:26.450Z,3.00
2022-12-06T23:21:06.841Z,3.00
2022-12-06T23:23:36.136Z,3.00
2022-12-06T23:26:08.010Z,3.00
2022-12-06T23:28:34.937Z,3.00
2022-12-06T23:31:06.853Z,3.00
2022-12-06T23:33:34.389Z,3.00
2022-12-06T23:36:02.386Z,3.00
2022-12-06T23:38:29.293Z,3.00
2022-12-06T23:40:56.234Z,3.00
2022-12-06T23:43:23.188Z,3.00
2022-12-06T23:45:58.452Z,3.00
2022-12-06T23:48:27.622Z,3.00
2022-12-06T23:51:20.662Z,3.00
2022-12-06T23:53:57.723Z,3.00
2022-12-06T23:56:25.523Z,3.00
2022-12-06T23:58:52.848Z,3.00
